South Roanoke, Virginia
Current Conditions -  °F | °C
As of 3:54 PM on Tuesday 21 Oct 2014 (Local Time) from KROA Reporting Station
Broken Clouds Broken Clouds  
Wind Chill: 61°   Ceiling: 8000
Heat Index: 61°   Visibility: 10mi
Dew Point: 42°   Wind: 14mph
Humidity: 50%   Direction: 300°WNW
Pressure: 29.89"   Gusts: 25mph
Location:  37.224°N, 79.9199°W
Report Text: KROA 211954Z 30012G22KT 10SM BKN080 16/06 A2989 RMK AO2 SLP118 T01610056
Loading
Personal Weather Stations






























Interactive Weather Map
Tropical Storm Tracking
New forecast layout! Learn more

10-Day Weather Forecast

Advertisements
Track Severe Weather on mobile